sensor_id;sensor_type;location;lat;lon;timestamp;temperature;humidity
11095;DHT22;5601;44.490;11.400;2022-08-19T00:01:28;20.30;99.90
11095;DHT22;5601;44.490;11.400;2022-08-19T00:03:58;20.20;99.90
11095;DHT22;5601;44.490;11.400;2022-08-19T00:06:25;20.20;99.90
11095;DHT22;5601;44.490;11.400;2022-08-19T00:08:52;20.20;99.90
11095;DHT22;5601;44.490;11.400;2022-08-19T00:11:21;20.30;99.90
11095;DHT22;5601;44.490;11.400;2022-08-19T00:13:50;20.40;99.90
11095;DHT22;5601;44.490;11.400;2022-08-19T00:16:18;20.50;99.90
11095;DHT22;5601;44.490;11.400;2022-08-19T00:18:46;20.60;99.90
11095;DHT22;5601;44.490;11.400;2022-08-19T00:21:15;20.60;99.90
11095;DHT22;5601;44.490;11.400;2022-08-19T00:23:45;20.60;99.90
11095;DHT22;5601;44.490;11.400;2022-08-19T00:26:12;20.50;99.90
11095;DHT22;5601;44.490;11.400;2022-08-19T00:28:40;20.50;99.90
11095;DHT22;5601;44.490;11.400;2022-08-19T00:31:09;20.50;99.90
11095;DHT22;5601;44.490;11.400;2022-08-19T00:33:37;20.50;99.90
11095;DHT22;5601;44.490;11.400;2022-08-19T00:36:06;20.50;99.90
11095;DHT22;5601;44.490;11.400;2022-08-19T00:38:38;20.50;99.90
11095;DHT22;5601;44.490;11.400;2022-08-19T00:41:09;20.50;99.90
11095;DHT22;5601;44.490;11.400;2022-08-19T00:43:37;20.50;99.90
11095;DHT22;5601;44.490;11.400;2022-08-19T00:46:06;20.50;99.90
11095;DHT22;5601;44.490;11.400;2022-08-19T00:48:34;20.50;99.90
11095;DHT22;5601;44.490;11.400;2022-08-19T00:51:02;20.50;99.90
11095;DHT22;5601;44.490;11.400;2022-08-19T00:53:32;20.50;99.90
11095;DHT22;5601;44.490;11.400;2022-08-19T00:56:02;20.50;99.90
11095;DHT22;5601;44.490;11.400;2022-08-19T00:58:34;20.60;99.90
11095;DHT22;5601;44.490;11.400;2022-08-19T01:01:03;20.50;99.90
11095;DHT22;5601;44.490;11.400;2022-08-19T01:03:30;20.50;99.90
11095;DHT22;5601;44.490;11.400;2022-08-19T01:05:58;20.40;99.90
11095;DHT22;5601;44.490;11.400;2022-08-19T01:08:26;20.30;99.90
11095;DHT22;5601;44.490;11.400;2022-08-19T01:10:55;20.20;99.90
11095;DHT22;5601;44.490;11.400;2022-08-19T01:13:30;20.10;99.90
11095;DHT22;5601;44.490;11.400;2022-08-19T01:16:01;20.00;99.90
11095;DHT22;5601;44.490;11.400;2022-08-19T01:18:30;19.90;99.90
11095;DHT22;5601;44.490;11.400;2022-08-19T01:21:05;19.80;99.90
11095;DHT22;5601;44.490;11.400;2022-08-19T01:23:36;19.80;99.90
11095;DHT22;5601;44.490;11.400;2022-08-19T01:26:12;19.70;99.90
11095;DHT22;5601;44.490;11.400;2022-08-19T01:28:40;19.70;99.90
11095;DHT22;5601;44.490;11.400;2022-08-19T01:31:09;19.70;99.90
11095;DHT22;5601;44.490;11.400;2022-08-19T01:33:38;19.70;99.90
11095;DHT22;5601;44.490;11.400;2022-08-19T01:36:09;19.80;99.90
11095;DHT22;5601;44.490;11.400;2022-08-19T01:38:40;19.80;99.90
11095;DHT22;5601;44.490;11.400;2022-08-19T01:41:08;19.80;99.90
11095;DHT22;5601;44.490;11.400;2022-08-19T01:43:36;19.80;99.90
11095;DHT22;5601;44.490;11.400;2022-08-19T01:46:04;19.70;99.90
11095;DHT22;5601;44.490;11.400;2022-08-19T01:48:35;19.80;99.90
11095;DHT22;5601;44.490;11.400;2022-08-19T01:51:04;19.80;99.90
11095;DHT22;5601;44.490;11.400;2022-08-19T01:53:33;19.80;99.90
11095;DHT22;5601;44.490;11.400;2022-08-19T01:56:04;19.90;99.90
11095;DHT22;5601;44.490;11.400;2022-08-19T01:58:36;20.00;99.90
11095;DHT22;5601;44.490;11.400;2022-08-19T02:01:06;20.00;99.90
11095;DHT22;5601;44.490;11.400;2022-08-19T02:03:34;20.00;99.90
11095;DHT22;5601;44.490;11.400;2022-08-19T02:06:03;19.90;99.90
11095;DHT22;5601;44.490;11.400;2022-08-19T02:08:31;19.90;99.90
11095;DHT22;5601;44.490;11.400;2022-08-19T02:11:00;19.90;99.90
11095;DHT22;5601;44.490;11.400;2022-08-19T02:13:28;19.90;99.90
11095;DHT22;5601;44.490;11.400;2022-08-19T02:15:56;19.90;99.90
11095;DHT22;5601;44.490;11.400;2022-08-19T02:18:24;20.00;99.90
11095;DHT22;5601;44.490;11.400;2022-08-19T02:20:52;20.00;99.90
11095;DHT22;5601;44.490;11.400;2022-08-19T02:23:19;20.00;99.90
11095;DHT22;5601;44.490;11.400;2022-08-19T02:25:48;19.90;99.90
11095;DHT22;5601;44.490;11.400;2022-08-19T02:28:16;19.90;99.90
11095;DHT22;5601;44.490;11.400;2022-08-19T02:30:45;19.90;99.90
11095;DHT22;5601;44.490;11.400;2022-08-19T02:33:14;19.90;99.90
11095;DHT22;5601;44.490;11.400;2022-08-19T02:35:43;19.90;99.90
11095;DHT22;5601;44.490;11.400;2022-08-19T02:38:11;19.90;99.90
11095;DHT22;5601;44.490;11.400;2022-08-19T02:40:55;19.80;99.90
11095;DHT22;5601;44.490;11.400;2022-08-19T02:43:25;19.80;99.90
11095;DHT22;5601;44.490;11.400;2022-08-19T02:45:55;19.80;99.90
11095;DHT22;5601;44.490;11.400;2022-08-19T17:13:28;24.00;99.90
11095;DHT22;5601;44.490;11.400;2022-08-19T17:15:56;24.00;99.90
11095;DHT22;5601;44.490;11.400;2022-08-19T17:18:24;23.90;99.90
11095;DHT22;5601;44.490;11.400;2022-08-19T17:20:52;23.90;99.90
11095;DHT22;5601;44.490;11.400;2022-08-19T17:23:21;23.90;99.90
11095;DHT22;5601;44.490;11.400;2022-08-19T17:25:50;23.90;99.90
11095;DHT22;5601;44.490;11.400;2022-08-19T17:28:19;23.90;99.90
11095;DHT22;5601;44.490;11.400;2022-08-19T17:30:48;24.00;99.90
11095;DHT22;5601;44.490;11.400;2022-08-19T17:33:16;23.90;99.90
11095;DHT22;5601;44.490;11.400;2022-08-19T17:35:44;23.90;99.90
11095;DHT22;5601;44.490;11.400;2022-08-19T17:38:14;23.90;99.90
11095;DHT22;5601;44.490;11.400;2022-08-19T17:40:42;23.80;99.90
11095;DHT22;5601;44.490;11.400;2022-08-19T17:43:13;23.70;99.90
11095;DHT22;5601;44.490;11.400;2022-08-19T17:45:42;23.60;99.90
11095;DHT22;5601;44.490;11.400;2022-08-19T17:48:11;23.60;99.90
11095;DHT22;5601;44.490;11.400;2022-08-19T17:50:40;23.50;99.90
11095;DHT22;5601;44.490;11.400;2022-08-19T17:53:08;23.50;99.90
11095;DHT22;5601;44.490;11.400;2022-08-19T17:55:35;23.40;99.90
11095;DHT22;5601;44.490;11.400;2022-08-19T17:58:03;23.40;99.90
11095;DHT22;5601;44.490;11.400;2022-08-19T18:00:31;23.40;99.90
11095;DHT22;5601;44.490;11.400;2022-08-19T18:03:00;23.40;99.90
11095;DHT22;5601;44.490;11.400;2022-08-19T18:05:38;23.40;99.90
11095;DHT22;5601;44.490;11.400;2022-08-19T18:08:06;23.40;99.90
11095;DHT22;5601;44.490;11.400;2022-08-19T18:10:33;23.30;99.90
11095;DHT22;5601;44.490;11.400;2022-08-19T18:13:03;23.30;99.90
11095;DHT22;5601;44.490;11.400;2022-08-19T18:15:31;23.30;99.90
11095;DHT22;5601;44.490;11.400;2022-08-19T18:17:59;23.30;99.90
11095;DHT22;5601;44.490;11.400;2022-08-19T18:20:26;23.40;99.90
11095;DHT22;5601;44.490;11.400;2022-08-19T18:22:55;23.40;99.90
11095;DHT22;5601;44.490;11.400;2022-08-19T18:25:25;23.40;99.90
11095;DHT22;5601;44.490;11.400;2022-08-19T18:27:54;23.40;99.90
11095;DHT22;5601;44.490;11.400;2022-08-19T18:30:23;23.30;99.90
11095;DHT22;5601;44.490;11.400;2022-08-19T18:32:51;23.30;99.90
11095;DHT22;5601;44.490;11.400;2022-08-19T18:35:23;23.30;99.90
11095;DHT22;5601;44.490;11.400;2022-08-19T18:37:57;23.30;99.90
11095;DHT22;5601;44.490;11.400;2022-08-19T18:40:27;23.30;99.90
11095;DHT22;5601;44.490;11.400;2022-08-19T18:43:14;23.20;99.90
11095;DHT22;5601;44.490;11.400;2022-08-19T18:45:58;23.20;99.90
11095;DHT22;5601;44.490;11.400;2022-08-19T18:48:43;23.20;99.90
11095;DHT22;5601;44.490;11.400;2022-08-19T18:51:27;23.20;99.90
11095;DHT22;5601;44.490;11.400;2022-08-19T18:53:58;23.20;99.90
11095;DHT22;5601;44.490;11.400;2022-08-19T18:56:28;23.20;99.90
11095;DHT22;5601;44.490;11.400;2022-08-19T18:58:56;23.20;99.90
11095;DHT22;5601;44.490;11.400;2022-08-19T19:01:26;23.30;99.90
11095;DHT22;5601;44.490;11.400;2022-08-19T19:03:57;23.30;99.90
11095;DHT22;5601;44.490;11.400;2022-08-19T19:06:26;23.20;99.90
11095;DHT22;5601;44.490;11.400;2022-08-19T19:08:55;23.20;99.90
11095;DHT22;5601;44.490;11.400;2022-08-19T19:11:26;23.20;99.90
11095;DHT22;5601;44.490;11.400;2022-08-19T19:13:55;23.20;99.90
11095;DHT22;5601;44.490;11.400;2022-08-19T19:16:25;23.20;99.90
11095;DHT22;5601;44.490;11.400;2022-08-19T19:18:52;23.20;99.90
11095;DHT22;5601;44.490;11.400;2022-08-19T19:21:19;23.10;99.90
11095;DHT22;5601;44.490;11.400;2022-08-19T19:23:47;23.10;99.90
11095;DHT22;5601;44.490;11.400;2022-08-19T19:26:15;23.00;99.90
11095;DHT22;5601;44.490;11.400;2022-08-19T19:28:44;23.00;99.90
11095;DHT22;5601;44.490;11.400;2022-08-19T19:31:14;22.90;99.90
11095;DHT22;5601;44.490;11.400;2022-08-19T19:33:43;22.90;99.90
11095;DHT22;5601;44.490;11.400;2022-08-19T19:36:11;22.90;99.90
11095;DHT22;5601;44.490;11.400;2022-08-19T19:38:38;22.80;99.90
